sensor_id;sensor_type;location;lat;lon;timestamp;P1;durP1;ratioP1;P2;durP2;ratioP2
30466;SDS011;17258;52.560;13.046;2024-02-15T00:04:50;2.13;;;2.03;;
30466;SDS011;17258;52.560;13.046;2024-02-15T00:14:54;1.55;;;1.45;;
30466;SDS011;17258;52.560;13.046;2024-02-15T00:24:58;1.70;;;1.60;;
30466;SDS011;17258;52.560;13.046;2024-02-15T00:34:59;2.28;;;2.17;;
30466;SDS011;17258;52.560;13.046;2024-02-15T00:45:00;9.50;;;2.20;;
30466;SDS011;17258;52.560;13.046;2024-02-15T00:55:01;2.15;;;2.00;;
30466;SDS011;17258;52.560;13.046;2024-02-15T01:05:02;2.45;;;2.13;;
30466;SDS011;17258;52.560;13.046;2024-02-15T01:15:03;2.28;;;2.05;;
30466;SDS011;17258;52.560;13.046;2024-02-15T01:25:05;2.05;;;1.95;;
30466;SDS011;17258;52.560;13.046;2024-02-15T01:35:08;2.45;;;2.30;;
30466;SDS011;17258;52.560;13.046;2024-02-15T01:45:10;2.55;;;2.35;;
30466;SDS011;17258;52.560;13.046;2024-02-15T01:55:11;2.50;;;2.30;;
30466;SDS011;17258;52.560;13.046;2024-02-15T02:05:14;2.25;;;2.15;;
30466;SDS011;17258;52.560;13.046;2024-02-15T02:15:15;2.40;;;2.20;;
30466;SDS011;17258;52.560;13.046;2024-02-15T02:25:16;2.88;;;2.55;;
30466;SDS011;17258;52.560;13.046;2024-02-15T02:35:17;2.55;;;2.35;;
30466;SDS011;17258;52.560;13.046;2024-02-15T02:45:20;2.00;;;1.90;;
30466;SDS011;17258;52.560;13.046;2024-02-15T02:55:22;3.05;;;2.78;;
30466;SDS011;17258;52.560;13.046;2024-02-15T03:05:23;3.43;;;2.97;;
30466;SDS011;17258;52.560;13.046;2024-02-15T03:15:23;2.80;;;2.60;;
30466;SDS011;17258;52.560;13.046;2024-02-15T03:25:24;3.17;;;2.87;;
30466;SDS011;17258;52.560;13.046;2024-02-15T03:35:28;2.72;;;2.55;;
30466;SDS011;17258;52.560;13.046;2024-02-15T03:45:31;2.20;;;2.10;;
30466;SDS011;17258;52.560;13.046;2024-02-15T03:55:32;2.47;;;2.27;;
30466;SDS011;17258;52.560;13.046;2024-02-15T04:05:33;2.80;;;2.60;;
30466;SDS011;17258;52.560;13.046;2024-02-15T04:15:34;2.67;;;2.47;;
30466;SDS011;17258;52.560;13.046;2024-02-15T04:25:34;4.03;;;2.70;;
30466;SDS011;17258;52.560;13.046;2024-02-15T04:35:35;2.80;;;2.60;;
30466;SDS011;17258;52.560;13.046;2024-02-15T04:45:36;3.23;;;3.00;;
30466;SDS011;17258;52.560;13.046;2024-02-15T04:55:37;2.47;;;2.27;;
30466;SDS011;17258;52.560;13.046;2024-02-15T05:05:38;3.42;;;3.05;;
30466;SDS011;17258;52.560;13.046;2024-02-15T05:15:39;2.87;;;2.73;;
30466;SDS011;17258;52.560;13.046;2024-02-15T05:25:40;3.10;;;2.90;;
30466;SDS011;17258;52.560;13.046;2024-02-15T05:35:41;3.28;;;3.00;;
30466;SDS011;17258;52.560;13.046;2024-02-15T05:45:46;3.35;;;3.05;;
30466;SDS011;17258;52.560;13.046;2024-02-15T05:55:49;3.30;;;3.10;;
30466;SDS011;17258;52.560;13.046;2024-02-15T06:05:50;3.00;;;2.80;;
30466;SDS011;17258;52.560;13.046;2024-02-15T06:15:50;2.67;;;2.53;;
30466;SDS011;17258;52.560;13.046;2024-02-15T06:25:55;2.72;;;2.53;;
30466;SDS011;17258;52.560;13.046;2024-02-15T06:36:04;2.83;;;2.63;;
30466;SDS011;17258;52.560;13.046;2024-02-15T06:46:24;3.10;;;2.90;;
30466;SDS011;17258;52.560;13.046;2024-02-15T06:56:25;3.50;;;3.10;;
30466;SDS011;17258;52.560;13.046;2024-02-15T07:06:26;3.03;;;2.83;;
30466;SDS011;17258;52.560;13.046;2024-02-15T07:16:32;3.05;;;2.85;;
30466;SDS011;17258;52.560;13.046;2024-02-15T07:26:33;3.50;;;3.20;;
30466;SDS011;17258;52.560;13.046;2024-02-15T07:36:36;2.95;;;2.72;;
30466;SDS011;17258;52.560;13.046;2024-02-15T07:46:39;3.17;;;2.97;;
30466;SDS011;17258;52.560;13.046;2024-02-15T07:56:40;3.15;;;2.63;;
30466;SDS011;17258;52.560;13.046;2024-02-15T08:06:41;4.57;;;2.78;;
30466;SDS011;17258;52.560;13.046;2024-02-15T08:16:42;2.38;;;2.22;;
30466;SDS011;17258;52.560;13.046;2024-02-15T08:26:43;2.90;;;2.57;;
30466;SDS011;17258;52.560;13.046;2024-02-15T08:36:44;2.77;;;2.40;;
30466;SDS011;17258;52.560;13.046;2024-02-15T08:46:44;2.67;;;2.47;;
30466;SDS011;17258;52.560;13.046;2024-02-15T08:56:45;2.33;;;2.23;;
30466;SDS011;17258;52.560;13.046;2024-02-15T09:06:46;2.37;;;2.10;;
30466;SDS011;17258;52.560;13.046;2024-02-15T09:16:46;2.70;;;2.50;;
30466;SDS011;17258;52.560;13.046;2024-02-15T09:26:47;2.30;;;2.10;;
30466;SDS011;17258;52.560;13.046;2024-02-15T09:36:48;2.97;;;2.77;;
30466;SDS011;17258;52.560;13.046;2024-02-15T09:46:49;2.63;;;2.43;;
30466;SDS011;17258;52.560;13.046;2024-02-15T09:56:58;2.10;;;2.00;;
30466;SDS011;17258;52.560;13.046;2024-02-15T10:07:04;1.67;;;1.58;;
30466;SDS011;17258;52.560;13.046;2024-02-15T10:17:06;1.98;;;1.77;;
30466;SDS011;17258;52.560;13.046;2024-02-15T10:27:09;2.33;;;2.08;;
30466;SDS011;17258;52.560;13.046;2024-02-15T10:37:11;1.55;;;1.45;;
30466;SDS011;17258;52.560;13.046;2024-02-15T10:47:13;4.47;;;1.52;;
30466;SDS011;17258;52.560;13.046;2024-02-15T10:57:14;1.50;;;1.45;;
30466;SDS011;17258;52.560;13.046;2024-02-15T11:07:25;1.73;;;1.60;;
30466;SDS011;17258;52.560;13.046;2024-02-15T11:17:47;1.98;;;1.30;;
30466;SDS011;17258;52.560;13.046;2024-02-15T11:27:54;1.48;;;1.40;;
30466;SDS011;17258;52.560;13.046;2024-02-15T11:37:55;1.85;;;1.75;;
30466;SDS011;17258;52.560;13.046;2024-02-15T11:48:07;1.98;;;1.40;;
30466;SDS011;17258;52.560;13.046;2024-02-15T11:58:12;2.63;;;1.60;;
30466;SDS011;17258;52.560;13.046;2024-02-15T12:08:28;1.40;;;1.27;;
30466;SDS011;17258;52.560;13.046;2024-02-15T12:18:48;1.58;;;1.48;;
30466;SDS011;17258;52.560;13.046;2024-02-15T12:28:52;1.35;;;1.25;;
30466;SDS011;17258;52.560;13.046;2024-02-15T12:38:58;1.60;;;1.50;;
30466;SDS011;17258;52.560;13.046;2024-02-15T12:49:43;1.60;;;1.50;;
30466;SDS011;17258;52.560;13.046;2024-02-15T12:59:25;1.33;;;1.17;;
30466;SDS011;17258;52.560;13.046;2024-02-15T13:09:25;2.40;;;1.15;;
30466;SDS011;17258;52.560;13.046;2024-02-15T13:19:26;0.90;;;0.90;;
30466;SDS011;17258;52.560;13.046;2024-02-15T13:29:28;1.42;;;1.33;;
30466;SDS011;17258;52.560;13.046;2024-02-15T13:39:32;1.00;;;1.00;;
30466;SDS011;17258;52.560;13.046;2024-02-15T13:49:33;1.33;;;1.20;;
30466;SDS011;17258;52.560;13.046;2024-02-15T13:59:34;1.08;;;1.00;;
30466;SDS011;17258;52.560;13.046;2024-02-15T14:09:35;1.40;;;1.30;;
30466;SDS011;17258;52.560;13.046;2024-02-15T14:19:35;3.10;;;1.30;;
30466;SDS011;17258;52.560;13.046;2024-02-15T14:29:37;1.48;;;0.98;;
30466;SDS011;17258;52.560;13.046;2024-02-15T14:39:44;0.70;;;0.70;;
30466;SDS011;17258;52.560;13.046;2024-02-15T14:49:45;0.80;;;0.80;;
30466;SDS011;17258;52.560;13.046;2024-02-15T14:59:45;2.10;;;1.60;;
30466;SDS011;17258;52.560;13.046;2024-02-15T15:09:46;1.07;;;1.00;;
30466;SDS011;17258;52.560;13.046;2024-02-15T15:20:05;1.35;;;1.05;;
30466;SDS011;17258;52.560;13.046;2024-02-15T15:30:09;1.15;;;1.05;;
30466;SDS011;17258;52.560;13.046;2024-02-15T15:40:10;2.55;;;1.33;;
30466;SDS011;17258;52.560;13.046;2024-02-15T15:50:12;1.08;;;0.98;;
30466;SDS011;17258;52.560;13.046;2024-02-15T16:00:13;1.88;;;1.00;;
30466;SDS011;17258;52.560;13.046;2024-02-15T16:10:15;2.20;;;1.25;;
30466;SDS011;17258;52.560;13.046;2024-02-15T16:20:18;0.90;;;0.90;;
30466;SDS011;17258;52.560;13.046;2024-02-15T16:30:18;1.57;;;1.00;;
30466;SDS011;17258;52.560;13.046;2024-02-15T16:40:19;1.98;;;1.50;;
30466;SDS011;17258;52.560;13.046;2024-02-15T16:50:22;1.00;;;1.00;;
30466;SDS011;17258;52.560;13.046;2024-02-15T17:00:23;1.92;;;1.30;;
30466;SDS011;17258;52.560;13.046;2024-02-15T17:10:24;2.22;;;1.98;;
30466;SDS011;17258;52.560;13.046;2024-02-15T17:20:25;1.35;;;1.33;;
30466;SDS011;17258;52.560;13.046;2024-02-15T17:30:26;1.67;;;1.58;;
30466;SDS011;17258;52.560;13.046;2024-02-15T17:40:27;1.50;;;1.40;;
30466;SDS011;17258;52.560;13.046;2024-02-15T17:50:28;1.43;;;1.33;;
30466;SDS011;17258;52.560;13.046;2024-02-15T18:00:28;1.40;;;1.30;;
30466;SDS011;17258;52.560;13.046;2024-02-15T18:10:30;1.80;;;1.70;;
30466;SDS011;17258;52.560;13.046;2024-02-15T18:20:31;2.30;;;2.20;;
30466;SDS011;17258;52.560;13.046;2024-02-15T18:30:32;3.10;;;2.05;;
30466;SDS011;17258;52.560;13.046;2024-02-15T18:40:35;3.75;;;2.47;;
30466;SDS011;17258;52.560;13.046;2024-02-15T18:50:37;3.08;;;2.78;;
30466;SDS011;17258;52.560;13.046;2024-02-15T19:00:37;2.23;;;1.70;;
30466;SDS011;17258;52.560;13.046;2024-02-15T19:10:40;1.77;;;1.67;;
30466;SDS011;17258;52.560;13.046;2024-02-15T19:20:41;1.90;;;1.30;;
30466;SDS011;17258;52.560;13.046;2024-02-15T19:30:42;1.17;;;1.17;;
30466;SDS011;17258;52.560;13.046;2024-02-15T19:40:43;1.30;;;1.27;;
30466;SDS011;17258;52.560;13.046;2024-02-15T19:50:44;1.23;;;1.17;;
30466;SDS011;17258;52.560;13.046;2024-02-15T20:00:45;1.40;;;1.30;;
30466;SDS011;17258;52.560;13.046;2024-02-15T20:10:48;1.13;;;1.02;;
30466;SDS011;17258;52.560;13.046;2024-02-15T20:20:48;2.63;;;1.20;;
30466;SDS011;17258;52.560;13.046;2024-02-15T20:30:49;0.95;;;0.95;;
30466;SDS011;17258;52.560;13.046;2024-02-15T20:40:50;1.47;;;0.93;;
30466;SDS011;17258;52.560;13.046;2024-02-15T20:50:50;3.73;;;1.13;;
30466;SDS011;17258;52.560;13.046;2024-02-15T21:00:51;1.37;;;1.20;;
30466;SDS011;17258;52.560;13.046;2024-02-15T21:10:54;1.45;;;1.10;;
30466;SDS011;17258;52.560;13.046;2024-02-15T21:20:59;1.48;;;1.38;;
30466;SDS011;17258;52.560;13.046;2024-02-15T21:31:00;1.60;;;1.50;;
30466;SDS011;17258;52.560;13.046;2024-02-15T21:41:03;1.40;;;1.30;;
30466;SDS011;17258;52.560;13.046;2024-02-15T21:51:05;0.95;;;0.93;;
30466;SDS011;17258;52.560;13.046;2024-02-15T22:01:06;1.50;;;1.35;;
30466;SDS011;17258;52.560;13.046;2024-02-15T22:11:07;1.17;;;1.08;;
30466;SDS011;17258;52.560;13.046;2024-02-15T22:21:10;1.00;;;1.00;;
30466;SDS011;17258;52.560;13.046;2024-02-15T22:31:44;1.13;;;1.07;;
30466;SDS011;17258;52.560;13.046;2024-02-15T22:41:38;2.95;;;1.17;;
30466;SDS011;17258;52.560;13.046;2024-02-15T22:51:39;1.30;;;1.20;;
30466;SDS011;17258;52.560;13.046;2024-02-15T23:01:40;1.30;;;1.20;;
30466;SDS011;17258;52.560;13.046;2024-02-15T23:11:41;1.33;;;1.27;;
30466;SDS011;17258;52.560;13.046;2024-02-15T23:21:41;1.98;;;1.42;;
30466;SDS011;17258;52.560;13.046;2024-02-15T23:31:42;1.52;;;1.42;;
30466;SDS011;17258;52.560;13.046;2024-02-15T23:41:43;2.30;;;1.70;;
30466;SDS011;17258;52.560;13.046;2024-02-15T23:51:43;3.00;;;1.67;;
